createdAt,value
2022-08-07T00:02:36.165Z,21.70
2022-08-07T00:05:19.817Z,21.58
2022-08-07T00:07:58.212Z,21.57
2022-08-07T00:10:48.171Z,21.51
2022-08-07T00:13:44.664Z,21.57
2022-08-07T00:16:17.609Z,21.70
2022-08-07T00:19:00.105Z,21.75
2022-08-07T00:21:56.445Z,21.73
2022-08-07T00:24:36.979Z,21.25
2022-08-07T00:27:09.472Z,20.91
2022-08-07T00:29:45.832Z,20.94
2022-08-07T00:32:19.322Z,20.90
2022-08-07T00:34:59.705Z,20.77
2022-08-07T00:37:47.814Z,21.03
2022-08-07T00:40:36.545Z,20.93
2022-08-07T00:43:58.939Z,20.95
2022-08-07T00:46:14.546Z,20.70
2022-08-07T00:48:49.867Z,20.38
2022-08-07T00:51:22.603Z,20.43
2022-08-07T00:53:59.107Z,20.63
2022-08-07T00:56:34.014Z,20.59
2022-08-07T00:59:20.240Z,20.71
2022-08-07T01:02:14.241Z,20.48
2022-08-07T01:05:04.244Z,20.55
2022-08-07T01:07:50.580Z,20.29
2022-08-07T01:10:27.492Z,20.14
2022-08-07T01:13:12.927Z,20.14
2022-08-07T01:16:05.215Z,20.10
2022-08-07T01:18:36.152Z,20.04
2022-08-07T01:21:28.443Z,19.87
2022-08-07T01:24:04.846Z,19.87
2022-08-07T01:26:35.790Z,20.07
2022-08-07T01:29:14.124Z,19.97
2022-08-07T01:31:53.074Z,20.02
2022-08-07T01:34:30.812Z,20.02
2022-08-07T01:37:22.938Z,20.06
2022-08-07T01:40:15.409Z,20.08
2022-08-07T01:43:09.867Z,19.98
2022-08-07T01:45:46.766Z,19.49
2022-08-07T01:48:32.234Z,19.35
2022-08-07T01:51:58.570Z,19.47
2022-08-07T01:54:12.317Z,19.11
2022-08-07T01:56:55.780Z,19.38
2022-08-07T02:00:00.728Z,19.29
2022-08-07T02:03:19.359Z,19.32
2022-08-07T02:06:00.890Z,19.75
2022-08-07T02:08:43.816Z,19.45
2022-08-07T02:12:02.927Z,19.33
2022-08-07T02:14:35.426Z,19.31
2022-08-07T02:17:04.720Z,19.38
2022-08-07T02:20:06.815Z,19.24
2022-08-07T02:22:41.484Z,19.13
2022-08-07T02:25:17.638Z,19.17
2022-08-07T02:28:04.106Z,19.19
2022-08-07T02:30:44.526Z,19.14
2022-08-07T02:33:57.231Z,19.25
2022-08-07T02:36:34.685Z,19.27
2022-08-07T02:39:17.559Z,19.29
2022-08-07T02:42:23.211Z,19.29
2022-08-07T02:45:58.164Z,19.32
2022-08-07T02:48:01.858Z,19.24
2022-08-07T02:50:47.622Z,19.04
2022-08-07T02:53:58.797Z,18.57
2022-08-07T02:56:38.048Z,18.60
2022-08-07T02:59:16.305Z,18.54
2022-08-07T03:01:52.218Z,18.80
2022-08-07T03:04:34.244Z,18.73
2022-08-07T03:07:15.547Z,18.80
2022-08-07T03:09:52.657Z,18.34
2022-08-07T03:12:30.798Z,18.47
2022-08-07T03:15:13.644Z,18.35
2022-08-07T03:18:02.820Z,18.69
2022-08-07T03:20:41.719Z,18.73
2022-08-07T03:23:19.246Z,18.74
2022-08-07T03:25:58.483Z,18.56
2022-08-07T03:28:39.609Z,18.42
2022-08-07T03:31:42.879Z,18.23
2022-08-07T03:34:27.366Z,18.08
2022-08-07T03:37:12.214Z,17.95
2022-08-07T03:40:13.135Z,18.17
2022-08-07T03:42:49.328Z,18.47
2022-08-07T03:45:31.049Z,18.32
2022-08-07T03:48:21.856Z,18.43
2022-08-07T03:54:36.120Z,18.33
2022-08-07T03:57:07.315Z,18.44
2022-08-07T03:59:46.573Z,18.01
2022-08-07T04:02:56.712Z,17.99
2022-08-07T04:05:42.289Z,18.33
2022-08-07T04:08:21.413Z,18.29
2022-08-07T04:12:20.893Z,18.60
2022-08-07T04:14:10.429Z,18.43
2022-08-07T04:16:58.248Z,18.31
2022-08-07T04:19:52.290Z,18.36
2022-08-07T04:22:31.979Z,18.36
2022-08-07T04:25:11.796Z,18.40
2022-08-07T04:27:46.232Z,18.48
2022-08-07T04:30:55.196Z,18.16
2022-08-07T04:33:32.916Z,18.25
2022-08-07T04:36:16.141Z,18.36
2022-08-07T04:38:58.471Z,18.41
2022-08-07T04:41:27.539Z,18.59
2022-08-07T04:44:12.106Z,18.57
2022-08-07T04:47:57.292Z,18.71
2022-08-07T04:50:45.190Z,18.67
2022-08-07T04:54:05.336Z,18.67
2022-08-07T04:58:23.764Z,18.66
2022-08-07T05:00:17.327Z,18.82
2022-08-07T05:03:31.190Z,18.95
2022-08-07T05:06:43.720Z,19.04
2022-08-07T05:09:45.886Z,19.13
2022-08-07T05:12:53.102Z,19.30
2022-08-07T05:15:37.727Z,19.36
2022-08-07T05:18:50.003Z,19.46
2022-08-07T05:21:59.127Z,19.50
2022-08-07T05:24:24.547Z,19.56
2022-08-07T05:27:14.495Z,19.51
2022-08-07T05:30:14.253Z,19.63
2022-08-07T05:33:10.251Z,19.52
2022-08-07T05:35:51.609Z,19.55
2022-08-07T05:39:00.201Z,19.63
2022-08-07T05:41:16.762Z,19.88
2022-08-07T05:44:11.905Z,19.99
2022-08-07T05:46:54.823Z,20.12
2022-08-07T05:49:50.068Z,20.29
2022-08-07T05:55:13.516Z,20.56
2022-08-07T05:57:49.963Z,20.66
2022-08-07T06:00:22.673Z,20.53
2022-08-07T06:03:01.387Z,20.49
2022-08-07T06:05:40.586Z,20.52
2022-08-07T06:08:30.662Z,20.59
2022-08-07T06:11:10.283Z,20.71
2022-08-07T06:14:12.718Z,20.57
2022-08-07T06:16:32.247Z,20.70
2022-08-07T06:19:09.149Z,20.76
2022-08-07T06:22:16.875Z,20.92
2022-08-07T06:25:04.071Z,20.93
2022-08-07T06:28:00.731Z,20.90
2022-08-07T06:30:35.617Z,21.00
2022-08-07T06:33:22.712Z,21.11
2022-08-07T06:36:12.060Z,21.13
2022-08-07T06:38:59.248Z,21.28
2022-08-07T06:42:35.014Z,21.68
2022-08-07T06:46:01.944Z,21.35
2022-08-07T06:48:31.169Z,21.63
2022-08-07T06:51:09.543Z,21.39
2022-08-07T06:54:12.056Z,21.37
2022-08-07T06:56:55.996Z,21.46
2022-08-07T07:00:14.546Z,21.57
2022-08-07T07:02:57.991Z,21.70
2022-08-07T07:08:39.881Z,21.94
2022-08-07T07:12:08.893Z,21.99
2022-08-07T07:14:25.649Z,21.96
2022-08-07T07:17:00.081Z,22.00
2022-08-07T07:19:57.750Z,22.19
2022-08-07T07:22:34.464Z,22.37
2022-08-07T07:26:34.549Z,22.24
2022-08-07T07:28:42.357Z,22.50
2022-08-07T07:31:30.499Z,22.45
2022-08-07T07:34:15.494Z,22.68
2022-08-07T07:36:57.044Z,22.35
2022-08-07T07:39:58.955Z,22.37
2022-08-07T07:42:33.613Z,22.70
2022-08-07T07:45:05.435Z,22.80
2022-08-07T07:47:52.774Z,22.66
2022-08-07T07:50:34.298Z,22.96
2022-08-07T07:53:23.248Z,22.52
2022-08-07T07:56:01.303Z,23.02
2022-08-07T07:58:40.308Z,23.16
2022-08-07T08:02:03.336Z,23.23
2022-08-07T08:04:13.999Z,23.40
2022-08-07T08:06:52.180Z,23.36
2022-08-07T08:09:29.611Z,23.53
2022-08-07T08:12:52.657Z,23.19
2022-08-07T08:15:15.856Z,23.07
2022-08-07T08:17:58.677Z,23.17
2022-08-07T08:20:55.596Z,24.33
2022-08-07T08:23:50.470Z,24.04
2022-08-07T08:26:40.100Z,23.80
2022-08-07T08:29:21.502Z,23.70
2022-08-07T08:32:17.612Z,24.26
2022-08-07T08:34:54.767Z,24.04
2022-08-07T08:38:00.257Z,23.87
2022-08-07T08:41:15.202Z,23.71
2022-08-07T08:44:19.311Z,24.28
2022-08-07T08:47:34.460Z,24.20
2022-08-07T08:50:49.107Z,23.51
2022-08-07T08:54:06.890Z,23.89
2022-08-07T08:56:52.584Z,24.34
2022-08-07T09:00:01.043Z,23.76
2022-08-07T09:02:43.758Z,24.29
2022-08-07T09:05:38.455Z,24.55
2022-08-07T09:08:32.867Z,24.81
2022-08-07T09:11:43.433Z,24.33
2022-08-07T09:16:20.440Z,24.33
2022-08-07T09:18:22.884Z,24.51
2022-08-07T09:22:09.992Z,24.47
2022-08-07T09:25:14.631Z,25.05
2022-08-07T09:29:22.348Z,25.00
2022-08-07T09:31:15.408Z,24.64
2022-08-07T09:34:09.353Z,24.58
2022-08-07T09:37:16.217Z,25.08
2022-08-07T09:40:15.843Z,25.42
2022-08-07T09:44:03.211Z,25.73
2022-08-07T09:47:51.238Z,25.29
2022-08-07T09:50:19.054Z,25.64
2022-08-07T09:53:06.054Z,25.61
2022-08-07T09:56:06.604Z,24.88
2022-08-07T09:59:07.700Z,25.76
2022-08-07T10:02:08.768Z,25.77
2022-08-07T10:05:19.123Z,25.87
2022-08-07T10:08:51.316Z,25.38
2022-08-07T10:12:01.695Z,25.58
2022-08-07T10:14:56.988Z,25.80
2022-08-07T10:18:01.387Z,26.00
2022-08-07T10:21:02.761Z,26.03
2022-08-07T10:24:10.227Z,25.52
2022-08-07T10:26:57.991Z,25.66
2022-08-07T10:30:01.862Z,26.25
2022-08-07T10:34:06.938Z,25.73
2022-08-07T10:37:04.137Z,26.04
2022-08-07T10:40:22.264Z,26.43
2022-08-07T10:43:34.686Z,26.96
2022-08-07T10:46:36.010Z,27.08
2022-08-07T10:49:49.425Z,26.60
2022-08-07T10:52:58.637Z,27.49
2022-08-07T10:56:30.114Z,26.91
2022-08-07T10:59:57.654Z,27.34
2022-08-07T11:03:14.827Z,27.68
2022-08-07T11:06:18.520Z,27.72
2022-08-07T11:09:03.696Z,27.40
2022-08-07T11:12:11.692Z,27.35
2022-08-07T11:15:04.119Z,27.06
2022-08-07T11:18:17.723Z,27.33
2022-08-07T11:21:20.520Z,27.26
2022-08-07T11:24:57.775Z,27.79
2022-08-07T11:28:17.498Z,27.46
2022-08-07T11:31:27.511Z,27.21
2022-08-07T11:34:22.115Z,27.27
2022-08-07T11:37:38.592Z,27.26
2022-08-07T11:40:29.582Z,27.24
2022-08-07T11:43:41.726Z,27.09
2022-08-07T11:46:48.820Z,27.19
2022-08-07T11:50:30.772Z,27.04
2022-08-07T11:53:12.366Z,26.79
2022-08-07T11:56:11.928Z,26.76
2022-08-07T12:00:11.186Z,27.46
2022-08-07T12:03:41.795Z,27.69
2022-08-07T12:06:37.013Z,27.34
2022-08-07T12:09:47.869Z,27.04
2022-08-07T12:12:30.225Z,27.38
2022-08-07T12:15:17.192Z,27.66
2022-08-07T12:18:12.530Z,27.77
2022-08-07T12:21:55.484Z,27.73
2022-08-07T12:26:03.337Z,27.54
2022-08-07T12:28:52.995Z,27.75
2022-08-07T12:32:05.415Z,26.06
2022-08-07T12:34:55.983Z,25.74
2022-08-07T12:38:09.509Z,26.59
2022-08-07T12:40:47.861Z,27.86
2022-08-07T12:44:01.830Z,27.26
2022-08-07T12:46:35.269Z,27.60
2022-08-07T12:49:48.590Z,27.64
2022-08-07T12:52:33.898Z,28.07
2022-08-07T12:55:41.435Z,28.45
2022-08-07T12:58:35.464Z,28.27
2022-08-07T13:01:27.979Z,28.19
2022-08-07T13:04:04.589Z,28.61
2022-08-07T13:07:10.224Z,29.09
2022-08-07T13:10:37.972Z,28.79
2022-08-07T13:13:50.457Z,28.67
2022-08-07T13:16:52.957Z,28.97
2022-08-07T13:19:50.611Z,29.85
2022-08-07T13:24:04.160Z,27.53
2022-08-07T13:26:26.565Z,27.64
2022-08-07T13:29:07.761Z,28.03
2022-08-07T13:32:38.046Z,27.24
2022-08-07T13:36:00.657Z,26.96
2022-08-07T13:38:42.375Z,26.70
2022-08-07T13:41:54.916Z,26.59
2022-08-07T13:44:34.665Z,26.51
2022-08-07T13:47:25.153Z,26.64
2022-08-07T13:50:34.507Z,26.67
2022-08-07T13:53:03.923Z,26.71
2022-08-07T13:55:54.202Z,26.79
2022-08-07T13:58:56.722Z,26.57
2022-08-07T14:01:29.276Z,26.54
2022-08-07T14:04:29.737Z,26.32
2022-08-07T14:07:10.919Z,26.47
2022-08-07T14:10:02.783Z,26.60
2022-08-07T14:13:03.886Z,26.55
2022-08-07T14:16:02.013Z,26.58
2022-08-07T14:18:57.138Z,26.56
2022-08-07T14:22:04.054Z,26.56
2022-08-07T14:24:53.648Z,26.51
2022-08-07T14:28:10.781Z,26.31
2022-08-07T14:31:04.811Z,26.07
2022-08-07T14:33:47.206Z,26.17
2022-08-07T14:36:36.201Z,26.31
2022-08-07T14:40:17.709Z,26.47
2022-08-07T14:42:20.319Z,26.45
2022-08-07T14:45:20.837Z,26.57
2022-08-07T14:48:04.706Z,26.27
2022-08-07T14:50:48.853Z,26.43
2022-08-07T14:54:30.493Z,26.57
2022-08-07T14:57:19.913Z,26.63
2022-08-07T15:00:06.220Z,26.52
2022-08-07T15:02:40.906Z,26.39
2022-08-07T15:05:23.550Z,26.15
2022-08-07T15:08:04.257Z,26.31
2022-08-07T15:10:58.755Z,26.27
2022-08-07T15:13:37.399Z,26.18
2022-08-07T15:16:14.660Z,26.19
2022-08-07T15:18:55.752Z,26.16
2022-08-07T15:27:36.870Z,25.98
2022-08-07T15:30:19.728Z,26.10
2022-08-07T15:33:03.828Z,26.05
2022-08-07T15:36:01.765Z,26.12
2022-08-07T15:38:51.216Z,26.03
2022-08-07T15:44:31.305Z,26.11
2022-08-07T15:47:16.480Z,26.15
2022-08-07T15:50:05.215Z,25.81
2022-08-07T15:52:40.822Z,25.70
2022-08-07T15:55:23.255Z,25.87
2022-08-07T15:58:23.334Z,25.88
2022-08-07T16:01:12.846Z,25.93
2022-08-07T16:06:58.645Z,25.87
2022-08-07T16:09:56.873Z,25.76
2022-08-07T16:13:01.107Z,25.80
2022-08-07T16:16:48.875Z,25.88
2022-08-07T16:19:58.736Z,25.88
2022-08-07T16:23:53.098Z,25.85
2022-08-07T16:26:39.426Z,25.85
2022-08-07T16:30:31.656Z,25.63
2022-08-07T16:34:02.860Z,25.64
2022-08-07T16:37:02.075Z,25.61
2022-08-07T16:40:30.721Z,25.62
2022-08-07T16:44:02.368Z,25.58
2022-08-07T16:47:07.804Z,25.57
2022-08-07T16:50:20.256Z,25.50
2022-08-07T16:52:57.438Z,25.56
2022-08-07T16:56:00.811Z,25.55
2022-08-07T16:59:10.300Z,25.57
2022-08-07T17:03:04.827Z,25.49
2022-08-07T17:06:28.501Z,25.46
2022-08-07T17:09:10.422Z,25.35
2022-08-07T17:12:33.435Z,25.38
2022-08-07T17:15:23.322Z,25.21
2022-08-07T17:18:24.140Z,25.25
2022-08-07T17:21:19.053Z,25.20
2022-08-07T17:24:39.383Z,25.03
2022-08-07T17:27:50.753Z,25.04
2022-08-07T17:30:26.879Z,25.08
2022-08-07T17:34:08.496Z,25.08
2022-08-07T17:36:59.765Z,24.82
2022-08-07T17:40:08.738Z,24.80
2022-08-07T17:43:00.648Z,24.78
2022-08-07T17:45:48.507Z,24.60
2022-08-07T17:48:31.233Z,24.66
2022-08-07T17:51:23.257Z,24.56
2022-08-07T17:54:29.419Z,24.51
2022-08-07T17:57:56.704Z,24.37
2022-08-07T18:00:32.989Z,24.28
2022-08-07T18:04:04.628Z,24.22
2022-08-07T18:07:19.519Z,24.11
2022-08-07T18:10:05.675Z,24.07
2022-08-07T18:13:17.460Z,24.04
2022-08-07T18:16:33.412Z,23.92
2022-08-07T18:21:07.069Z,23.91
2022-08-07T18:23:04.630Z,23.79
2022-08-07T18:25:44.077Z,23.90
2022-08-07T18:28:57.739Z,23.87
2022-08-07T18:32:06.655Z,23.61
2022-08-07T18:35:27.025Z,23.70
2022-08-07T18:38:58.179Z,23.57
2022-08-07T18:41:59.924Z,23.57
2022-08-07T18:45:44.243Z,23.50
2022-08-07T18:50:30.813Z,23.45
2022-08-07T18:52:38.825Z,23.38
2022-08-07T18:55:40.699Z,23.38
2022-08-07T18:58:23.592Z,23.38
2022-08-07T19:02:19.352Z,23.28
2022-08-07T19:05:18.264Z,23.21
2022-08-07T19:08:03.923Z,23.23
2022-08-07T19:10:51.301Z,23.19
2022-08-07T19:13:41.135Z,23.18
2022-08-07T19:17:00.329Z,23.11
2022-08-07T19:19:53.247Z,23.17
2022-08-07T19:22:44.950Z,23.17
2022-08-07T19:26:22.737Z,23.04
2022-08-07T19:30:56.359Z,23.25
2022-08-07T19:32:05.351Z,23.06
2022-08-07T19:34:33.853Z,22.96
2022-08-07T19:37:17.619Z,22.87
2022-08-07T19:40:15.126Z,22.86
2022-08-07T19:42:48.802Z,23.02
2022-08-07T19:46:07.968Z,22.92
2022-08-07T19:48:42.180Z,22.78
2022-08-07T19:51:24.077Z,22.76
2022-08-07T19:54:31.864Z,22.91
2022-08-07T19:58:02.713Z,22.92
2022-08-07T20:00:29.339Z,22.94
2022-08-07T20:03:35.613Z,23.06
2022-08-07T20:06:06.433Z,23.02
2022-08-07T20:08:48.908Z,23.08
2022-08-07T20:12:00.913Z,23.33
2022-08-07T20:14:31.820Z,23.28
2022-08-07T20:17:07.108Z,23.22
2022-08-07T20:19:48.108Z,23.12
2022-08-07T20:22:39.293Z,23.06
2022-08-07T20:25:24.799Z,22.86
2022-08-07T20:28:03.397Z,23.13
2022-08-07T20:33:37.984Z,22.90
2022-08-07T20:36:11.723Z,23.07
2022-08-07T20:39:00.471Z,23.07
2022-08-07T20:41:50.313Z,22.96
2022-08-07T20:44:33.292Z,22.97
2022-08-07T20:47:16.610Z,22.85
2022-08-07T20:49:59.275Z,22.95
2022-08-07T20:52:51.018Z,22.97
2022-08-07T20:55:42.317Z,22.99
2022-08-07T20:58:28.173Z,23.02
2022-08-07T21:01:19.613Z,22.83
2022-08-07T21:04:19.887Z,22.69
2022-08-07T21:06:57.417Z,22.86
2022-08-07T21:09:53.290Z,23.19
2022-08-07T21:12:49.100Z,23.27
2022-08-07T21:15:58.651Z,23.52
2022-08-07T21:18:27.905Z,23.61
2022-08-07T21:21:02.576Z,23.57
2022-08-07T21:24:13.518Z,23.52
2022-08-07T21:27:14.795Z,23.32
2022-08-07T21:30:03.872Z,23.46
2022-08-07T21:32:55.307Z,23.50
2022-08-07T21:36:05.808Z,23.57
2022-08-07T21:39:46.393Z,23.37
2022-08-07T21:42:52.994Z,23.42
2022-08-07T21:46:09.720Z,23.52
2022-08-07T21:49:04.889Z,23.41
2022-08-07T21:52:18.011Z,23.38
2022-08-07T21:55:28.115Z,23.24
2022-08-07T21:58:30.028Z,23.30
2022-08-07T22:02:10.864Z,23.38
2022-08-07T22:04:52.537Z,23.20
2022-08-07T22:07:48.755Z,22.89
2022-08-07T22:10:35.451Z,22.92
2022-08-07T22:13:15.495Z,23.01
2022-08-07T22:16:42.880Z,23.00
2022-08-07T22:19:37.630Z,22.79
2022-08-07T22:22:28.985Z,22.92
2022-08-07T22:25:19.955Z,22.97
2022-08-07T22:28:31.750Z,22.86
2022-08-07T22:31:59.251Z,22.84
2022-08-07T22:34:35.503Z,22.82
2022-08-07T22:38:03.311Z,22.62
2022-08-07T22:40:37.600Z,22.64
2022-08-07T22:43:20.085Z,22.54
2022-08-07T22:47:02.754Z,22.55
2022-08-07T22:50:01.163Z,22.62
2022-08-07T22:53:01.134Z,22.91
2022-08-07T22:56:11.166Z,22.62
2022-08-07T22:59:34.201Z,22.46
2022-08-07T23:02:45.015Z,22.53
2022-08-07T23:06:06.947Z,22.67
2022-08-07T23:12:32.604Z,22.78
2022-08-07T23:16:06.515Z,22.71
2022-08-07T23:19:14.010Z,22.91
2022-08-07T23:22:22.116Z,22.78
2022-08-07T23:25:28.247Z,22.71
2022-08-07T23:28:44.249Z,22.83
2022-08-07T23:32:49.238Z,22.75
2022-08-07T23:35:01.231Z,22.80
2022-08-07T23:38:00.447Z,22.80
2022-08-07T23:41:09.551Z,23.00
2022-08-07T23:43:59.569Z,23.01
2022-08-07T23:47:08.333Z,22.91
2022-08-07T23:50:11.742Z,22.91
2022-08-07T23:53:21.979Z,22.94
2022-08-07T23:56:20.808Z,22.84
